Elkins-Randolph Co-Jennings Randolph Field
KEKN : rendu visible

Aérodrome :











RETROUVEZ-NOUS SUR...

 
LOGIN :

S'inscrire | Disclaimer

   EN    FR    IT 

 









Légende :    VFR   VFR Marginal   IFR   IFR Intensif   IFR Très Intensif
Visi : 
Plafond : 
>= 8 km
>= 3000ft
5 à 8 km
1000 à 3000 ft
1500m à 5 km
500 à 1000 ft
800 à 1500m
200 à 500 ft
< 800m
< 200 ft
Symboles :   Orages  Brouillard  Fortes neiges  Fortes précipitations  Vent > 20 kt






- Altitude de l'aérodrome : 1987 ft


KEKN - Elkins-Randolph Co-Jennings Randolph Field

DERNIER METAR :
  • 131651Z AUTO 20004KT 10SM FEW038 29/19 A3011 RMK AO2 SLP182 T02890194

METARs EXPIRÉS :
  • 131551Z AUTO 26004KT 10SM CLR 28/19 A3012 RMK AO2 SLP187 T02780194
  • 131451Z AUTO 00000KT 10SM CLR 24/20 A3013 RMK AO2 SLP193 T02440200 58005
  • 131432Z AUTO 24004KT 10SM FEW005 23/19 A3014 RMK AO2 T02330194

TAF KEKN
Valide du 13 à 15h jusqu'au 14 à 12h UTC


131520Z 1315/1412 VRB03KT P6SM SCT060
FM131700 04003KT P6SM VCTS BKN035CB
FM140200 00000KT P6SM BKN045
FM140500 00000KT 2SM BR OVC015
FM140700 00000KT 1/2SM FG OVC001
FIR KZDC / Amérique du Nord



MET'MAP, la Météo Aéronautique d'un coup d'oeil ! - Copyright ORBIFLY Décembre 2007 - Disclaimer

ORBIFLY MET'MAP TEAM :

Programmation & Développement : Alexandra Zaïnal
Sur une idée originale de : Baudouin d'Aumeries
Assistance à la programmation : Marc-Olivier Méhu
Soutien technique & logistique : Manuel Goepfert

Contact : metmap@orbifly.com




SOURCES & CREDITS :

   NOAA       Earth
Advisory